createdAt,value
2022-12-25T00:02:37.610Z,5.75
2022-12-25T00:05:41.067Z,7.30
2022-12-25T00:08:44.511Z,5.70
2022-12-25T00:11:48.384Z,2.97
2022-12-25T00:14:51.504Z,3.53
2022-12-25T00:17:55.506Z,4.00
2022-12-25T00:21:04.830Z,5.32
2022-12-25T00:24:08.095Z,8.65
2022-12-25T00:27:11.928Z,5.37
2022-12-25T00:30:15.345Z,4.82
2022-12-25T00:33:18.391Z,5.53
2022-12-25T00:36:23.077Z,6.45
2022-12-25T00:39:26.018Z,5.30
2022-12-25T00:42:29.352Z,4.32
2022-12-25T00:45:32.350Z,7.78
2022-12-25T00:48:35.858Z,5.03
2022-12-25T00:51:38.909Z,3.40
2022-12-25T00:54:42.330Z,6.28
2022-12-25T00:57:45.191Z,10.35
2022-12-25T01:00:49.185Z,4.18
2022-12-25T01:03:53.189Z,5.82
2022-12-25T01:06:56.406Z,7.57
2022-12-25T01:10:18.727Z,4.05
2022-12-25T01:13:22.061Z,10.18
2022-12-25T01:16:25.559Z,6.87
2022-12-25T01:19:28.915Z,8.65
2022-12-25T01:22:31.830Z,5.90
2022-12-25T01:25:35.122Z,6.65
2022-12-25T01:28:38.974Z,10.30
2022-12-25T01:31:43.446Z,6.57
2022-12-25T01:34:49.319Z,4.20
2022-12-25T01:37:57.117Z,6.07
2022-12-25T01:41:00.610Z,5.93
2022-12-25T01:44:36.877Z,7.15
2022-12-25T01:47:39.949Z,9.02
2022-12-25T01:50:48.102Z,6.05
2022-12-25T01:53:51.144Z,9.10
2022-12-25T01:56:59.426Z,5.65
2022-12-25T02:00:02.817Z,6.97
2022-12-25T02:03:07.571Z,9.90
2022-12-25T02:06:12.218Z,6.80
2022-12-25T02:09:15.725Z,5.60
2022-12-25T02:12:22.735Z,7.22
2022-12-25T02:15:33.223Z,8.73
2022-12-25T02:18:43.908Z,8.20
2022-12-25T02:21:59.020Z,6.85
2022-12-25T02:25:17.564Z,8.20
2022-12-25T02:28:29.518Z,8.40
2022-12-25T02:31:39.202Z,14.27
2022-12-25T02:35:05.940Z,6.30
2022-12-25T02:38:20.753Z,5.45
2022-12-25T02:41:23.703Z,7.00
2022-12-25T02:44:46.556Z,4.72
2022-12-25T02:48:08.275Z,12.77
2022-12-25T02:51:32.093Z,5.35
2022-12-25T02:54:57.267Z,3.87
2022-12-25T02:58:23.004Z,8.00
2022-12-25T03:01:47.719Z,8.70
2022-12-25T03:05:10.143Z,6.15
2022-12-25T03:08:20.634Z,10.20
2022-12-25T03:11:32.814Z,6.12
2022-12-25T03:14:54.268Z,5.70
2022-12-25T03:17:59.726Z,7.05
2022-12-25T03:21:21.338Z,6.30
2022-12-25T03:24:42.921Z,7.30
2022-12-25T03:27:46.866Z,5.28
2022-12-25T03:31:12.252Z,7.85
2022-12-25T03:34:40.789Z,9.00
2022-12-25T03:38:27.078Z,8.23
2022-12-25T03:42:19.052Z,7.32
2022-12-25T03:45:47.264Z,6.80
2022-12-25T03:49:11.778Z,9.70
2022-12-25T03:52:34.869Z,8.23
2022-12-25T03:55:57.239Z,6.95
2022-12-25T03:59:23.515Z,7.75
2022-12-25T04:02:45.439Z,10.32
2022-12-25T04:06:08.548Z,7.90
2022-12-25T04:09:30.405Z,6.30
2022-12-25T04:12:52.106Z,5.37
2022-12-25T04:16:14.081Z,7.03
2022-12-25T04:19:36.817Z,9.85
2022-12-25T04:22:58.313Z,8.73
2022-12-25T04:26:20.625Z,9.00
2022-12-25T04:29:42.326Z,9.35
2022-12-25T04:33:04.227Z,8.13
2022-12-25T04:36:11.265Z,8.38
2022-12-25T04:39:14.476Z,5.55
2022-12-25T04:42:17.726Z,8.80
2022-12-25T04:45:20.985Z,9.77
2022-12-25T04:48:24.447Z,6.28
2022-12-25T04:51:27.694Z,10.05
2022-12-25T04:54:30.893Z,6.30
2022-12-25T04:57:34.173Z,7.28
2022-12-25T05:00:37.569Z,8.07
2022-12-25T05:03:41.324Z,7.00
2022-12-25T05:06:45.196Z,9.13
2022-12-25T05:09:48.485Z,7.85
2022-12-25T05:12:51.832Z,6.57
2022-12-25T05:15:55.113Z,7.20
2022-12-25T05:18:58.132Z,6.65
2022-12-25T05:22:01.368Z,7.60
2022-12-25T05:25:04.585Z,6.05
2022-12-25T05:28:08.176Z,10.50
2022-12-25T05:31:11.592Z,14.73
2022-12-25T05:34:14.883Z,15.90
2022-12-25T05:37:17.798Z,10.18
2022-12-25T05:40:21.084Z,15.82
2022-12-25T05:43:24.278Z,9.25
2022-12-25T05:46:27.884Z,14.43
2022-12-25T05:49:30.897Z,11.65
2022-12-25T05:52:34.780Z,9.65
2022-12-25T05:55:38.834Z,8.52
2022-12-25T05:58:42.065Z,9.43
2022-12-25T06:01:45.116Z,5.10
2022-12-25T06:04:48.573Z,11.80
2022-12-25T06:07:51.758Z,11.40
2022-12-25T06:10:55.382Z,13.68
2022-12-25T06:13:58.309Z,15.80
2022-12-25T06:17:01.849Z,14.52
2022-12-25T06:20:06.513Z,15.07
2022-12-25T06:23:09.899Z,15.53
2022-12-25T06:26:16.847Z,12.13
2022-12-25T06:29:20.148Z,8.48
2022-12-25T06:32:23.302Z,8.73
2022-12-25T06:35:27.140Z,8.05
2022-12-25T06:38:30.066Z,11.23
2022-12-25T06:41:33.716Z,8.02
2022-12-25T06:44:36.589Z,7.10
2022-12-25T06:47:39.904Z,12.63
2022-12-25T06:50:44.335Z,13.82
2022-12-25T06:53:48.920Z,12.37
2022-12-25T06:56:51.803Z,12.00
2022-12-25T06:59:55.669Z,10.10
2022-12-25T07:02:58.450Z,10.65
2022-12-25T07:06:01.554Z,5.60
2022-12-25T07:09:04.406Z,5.25
2022-12-25T07:12:13.619Z,6.65
2022-12-25T07:15:16.712Z,7.05
2022-12-25T07:18:19.919Z,7.62
2022-12-25T07:21:22.793Z,8.25
2022-12-25T07:24:25.954Z,5.43
2022-12-25T07:27:28.982Z,8.40
2022-12-25T07:30:32.761Z,7.80
2022-12-25T07:33:36.335Z,7.20
2022-12-25T07:36:39.701Z,10.20
2022-12-25T07:39:42.634Z,6.82
2022-12-25T07:42:45.821Z,5.18
2022-12-25T07:45:48.728Z,7.00
2022-12-25T07:48:52.055Z,51.33
2022-12-25T07:51:55.299Z,89.53
2022-12-25T07:54:58.511Z,60.40
2022-12-25T07:58:01.515Z,40.47
2022-12-25T08:01:07.530Z,42.65
2022-12-25T08:04:11.870Z,42.08
2022-12-25T08:07:14.880Z,31.98
2022-12-25T08:10:19.304Z,23.73
2022-12-25T08:13:22.353Z,22.25
2022-12-25T08:16:26.171Z,31.83
2022-12-25T08:19:29.388Z,25.70
2022-12-25T08:22:32.653Z,19.08
2022-12-25T08:25:35.626Z,17.65
2022-12-25T08:28:39.104Z,17.05
2022-12-25T08:31:46.491Z,17.73
2022-12-25T08:34:50.143Z,16.92
2022-12-25T08:37:53.035Z,28.52
2022-12-25T08:40:56.211Z,24.85
2022-12-25T08:43:59.266Z,12.55
2022-12-25T08:47:02.476Z,7.97
2022-12-25T08:50:06.224Z,42.20
2022-12-25T08:53:09.735Z,47.33
2022-12-25T08:56:13.398Z,52.47
2022-12-25T08:59:18.060Z,61.88
2022-12-25T09:02:21.113Z,65.40
2022-12-25T09:05:25.628Z,49.23
2022-12-25T09:08:28.704Z,44.08
2022-12-25T09:11:31.926Z,43.83
2022-12-25T09:14:34.843Z,42.33
2022-12-25T09:17:38.373Z,38.60
2022-12-25T09:20:41.371Z,42.33
2022-12-25T09:23:44.764Z,39.60
2022-12-25T09:26:47.698Z,40.47
2022-12-25T09:29:51.068Z,42.00
2022-12-25T09:32:54.053Z,41.00
2022-12-25T09:36:02.966Z,32.45
2022-12-25T09:39:05.923Z,29.27
2022-12-25T09:42:21.266Z,24.45
2022-12-25T09:45:32.786Z,29.87
2022-12-25T09:48:38.149Z,29.05
2022-12-25T09:51:44.602Z,27.52
2022-12-25T09:55:07.209Z,22.13
2022-12-25T09:58:13.667Z,18.02
2022-12-25T10:01:33.344Z,13.85
2022-12-25T10:04:51.965Z,14.82
2022-12-25T10:08:13.177Z,14.13
2022-12-25T10:11:38.864Z,15.38
2022-12-25T10:14:47.462Z,14.95
2022-12-25T10:18:32.088Z,11.80
2022-12-25T10:21:35.260Z,12.35
2022-12-25T10:24:49.082Z,10.93
2022-12-25T10:27:55.899Z,10.73
2022-12-25T10:31:21.376Z,11.93
2022-12-25T10:34:24.687Z,12.75
2022-12-25T10:37:27.922Z,7.18
2022-12-25T10:41:01.224Z,9.93
2022-12-25T10:44:21.239Z,6.45
2022-12-25T10:47:26.388Z,6.35
2022-12-25T10:50:30.599Z,12.15
2022-12-25T10:53:39.659Z,10.50
2022-12-25T10:57:02.086Z,10.55
2022-12-25T11:00:08.109Z,5.72
2022-12-25T11:03:22.790Z,10.95
2022-12-25T11:06:28.738Z,9.00
2022-12-25T11:09:32.533Z,6.05
2022-12-25T11:12:37.172Z,8.18
2022-12-25T11:15:46.105Z,9.23
2022-12-25T11:18:51.618Z,9.50
2022-12-25T11:21:57.403Z,17.60
2022-12-25T11:25:13.587Z,12.90
2022-12-25T11:28:17.005Z,14.13
2022-12-25T11:31:24.727Z,12.25
2022-12-25T11:34:38.600Z,8.32
2022-12-25T11:37:52.498Z,11.25
2022-12-25T11:40:59.217Z,8.48
2022-12-25T11:44:05.263Z,13.95
2022-12-25T11:47:38.274Z,8.35
2022-12-25T11:50:52.231Z,10.50
2022-12-25T11:53:59.987Z,7.97
2022-12-25T11:57:04.761Z,9.00
2022-12-25T12:00:10.412Z,7.30
2022-12-25T12:03:18.560Z,8.77
2022-12-25T12:06:57.039Z,8.75
2022-12-25T12:10:10.153Z,9.25
2022-12-25T12:13:21.345Z,6.50
2022-12-25T12:16:24.766Z,5.10
2022-12-25T12:19:30.695Z,9.52
2022-12-25T12:22:34.075Z,7.03
2022-12-25T12:25:41.930Z,10.07
2022-12-25T12:28:46.440Z,6.12
2022-12-25T12:31:50.455Z,5.45
2022-12-25T12:34:53.837Z,4.80
2022-12-25T12:38:00.236Z,3.95
2022-12-25T12:41:07.196Z,7.60
2022-12-25T12:44:11.287Z,5.12
2022-12-25T12:47:28.527Z,10.07
2022-12-25T12:50:34.279Z,6.40
2022-12-25T12:53:42.224Z,6.72
2022-12-25T12:56:55.513Z,6.53
2022-12-25T13:00:04.793Z,7.50
2022-12-25T13:03:27.621Z,7.90
2022-12-25T13:06:34.585Z,5.20
2022-12-25T13:09:49.959Z,9.93
2022-12-25T13:13:05.790Z,5.82
2022-12-25T13:16:36.826Z,5.57
2022-12-25T13:19:42.748Z,4.93
2022-12-25T13:22:52.361Z,2.28
2022-12-25T13:26:04.414Z,2.67
2022-12-25T13:29:11.493Z,4.15
2022-12-25T13:32:25.035Z,4.50
2022-12-25T13:35:28.186Z,4.28
2022-12-25T13:38:31.497Z,6.47
2022-12-25T13:42:12.470Z,2.33
2022-12-25T13:45:25.064Z,2.50
2022-12-25T13:48:28.005Z,4.22
2022-12-25T13:51:31.194Z,6.12
2022-12-25T13:54:34.176Z,3.33
2022-12-25T13:57:40.544Z,2.45
2022-12-25T14:00:53.144Z,3.05
2022-12-25T14:03:56.741Z,4.70
2022-12-25T14:07:09.310Z,4.12
2022-12-25T14:10:14.195Z,2.53
2022-12-25T14:16:21.762Z,4.78
2022-12-25T14:19:33.442Z,7.45
2022-12-25T14:22:38.688Z,6.85
2022-12-25T14:25:44.855Z,5.80
2022-12-25T14:28:49.820Z,5.93
2022-12-25T14:31:56.153Z,4.47
2022-12-25T14:35:03.575Z,2.47
2022-12-25T14:38:06.566Z,2.87
2022-12-25T14:41:37.096Z,3.45
2022-12-25T14:44:41.224Z,5.45
2022-12-25T14:47:53.169Z,4.45
2022-12-25T14:51:03.142Z,6.12
2022-12-25T14:54:15.639Z,4.37
2022-12-25T14:57:34.077Z,7.95
2022-12-25T15:00:38.706Z,10.40
2022-12-25T15:03:43.816Z,6.03
2022-12-25T15:06:56.736Z,7.12
2022-12-25T15:10:36.496Z,5.07
2022-12-25T15:13:23.312Z,8.55
2022-12-25T15:16:47.868Z,4.78
2022-12-25T15:19:51.143Z,4.62
2022-12-25T15:23:18.587Z,5.37
2022-12-25T15:26:17.792Z,6.30
2022-12-25T15:29:38.143Z,8.10
2022-12-25T15:32:43.990Z,5.00
2022-12-25T15:35:47.085Z,4.07
2022-12-25T15:38:51.061Z,4.47
2022-12-25T15:42:13.030Z,6.97
2022-12-25T15:45:21.091Z,6.82
2022-12-25T15:48:24.000Z,5.18
2022-12-25T15:51:27.625Z,3.80
2022-12-25T15:54:31.572Z,5.93
2022-12-25T15:57:35.325Z,3.93
2022-12-25T16:00:38.236Z,7.57
2022-12-25T16:03:42.647Z,6.05
2022-12-25T16:06:45.712Z,7.32
2022-12-25T16:09:49.195Z,3.53
2022-12-25T16:12:52.112Z,4.50
2022-12-25T16:15:55.405Z,3.65
2022-12-25T16:18:59.506Z,5.87
2022-12-25T16:22:02.780Z,4.53
2022-12-25T16:25:11.785Z,4.87
2022-12-25T16:28:16.434Z,4.70
2022-12-25T16:31:19.498Z,5.07
2022-12-25T16:34:23.905Z,6.17
2022-12-25T16:37:27.769Z,10.77
2022-12-25T16:40:34.627Z,13.35
2022-12-25T16:43:37.532Z,5.97
2022-12-25T16:46:40.928Z,4.00
2022-12-25T16:49:44.274Z,2.80
2022-12-25T16:52:47.231Z,3.25
2022-12-25T16:55:50.181Z,4.93
2022-12-25T16:58:53.461Z,4.28
2022-12-25T17:01:56.565Z,16.50
2022-12-25T17:05:00.602Z,31.20
2022-12-25T17:08:03.583Z,42.17
2022-12-25T17:11:06.843Z,31.23
2022-12-25T17:14:10.388Z,26.35
2022-12-25T17:17:13.722Z,33.65
2022-12-25T17:20:19.491Z,14.45
2022-12-25T17:23:23.082Z,12.65
2022-12-25T17:26:26.104Z,11.12
2022-12-25T17:29:29.800Z,6.68
2022-12-25T17:32:34.626Z,7.28
2022-12-25T17:35:37.855Z,5.75
2022-12-25T17:38:41.155Z,7.07
2022-12-25T17:41:44.490Z,8.32
2022-12-25T17:44:47.431Z,5.62
2022-12-25T17:47:55.047Z,8.60
2022-12-25T17:51:05.997Z,9.40
2022-12-25T17:54:09.624Z,17.37
2022-12-25T17:57:12.670Z,20.25
2022-12-25T18:00:16.449Z,17.48
2022-12-25T18:03:20.723Z,15.20
2022-12-25T18:06:25.042Z,7.95
2022-12-25T18:09:28.343Z,6.62
2022-12-25T18:12:31.405Z,9.10
2022-12-25T18:15:39.953Z,6.43
2022-12-25T18:18:51.399Z,6.20
2022-12-25T18:22:09.293Z,13.13
2022-12-25T18:25:13.071Z,12.60
2022-12-25T18:28:16.808Z,8.18
2022-12-25T18:31:24.478Z,8.45
2022-12-25T18:34:27.598Z,12.52
2022-12-25T18:37:34.472Z,13.02
2022-12-25T18:40:44.433Z,7.62
2022-12-25T18:43:53.500Z,7.80
2022-12-25T18:46:58.172Z,5.43
2022-12-25T18:50:01.554Z,5.85
2022-12-25T18:53:08.081Z,10.13
2022-12-25T18:56:15.237Z,8.30
2022-12-25T18:59:19.203Z,7.47
2022-12-25T19:02:22.969Z,6.72
2022-12-25T19:05:26.367Z,5.78
2022-12-25T19:08:32.575Z,11.30
2022-12-25T19:11:46.464Z,11.70
2022-12-25T19:14:50.223Z,20.52
2022-12-25T19:17:53.830Z,32.35
2022-12-25T19:20:57.182Z,15.52
2022-12-25T19:24:00.117Z,25.83
2022-12-25T19:27:04.144Z,8.52
2022-12-25T19:30:08.547Z,11.30
2022-12-25T19:33:17.444Z,9.68
2022-12-25T19:36:21.598Z,11.25
2022-12-25T19:39:25.032Z,9.00
2022-12-25T19:42:28.271Z,8.00
2022-12-25T19:45:32.211Z,7.30
2022-12-25T19:48:36.498Z,6.78
2022-12-25T19:51:43.659Z,5.63
2022-12-25T19:54:52.847Z,5.80
2022-12-25T19:57:59.435Z,8.18
2022-12-25T20:01:09.103Z,6.15
2022-12-25T20:04:12.874Z,5.78
2022-12-25T20:07:15.910Z,7.37
2022-12-25T20:10:19.487Z,6.72
2022-12-25T20:13:23.378Z,5.72
2022-12-25T20:16:27.888Z,3.93
2022-12-25T20:19:32.543Z,13.32
2022-12-25T20:25:41.853Z,7.18
2022-12-25T20:28:49.067Z,3.87
2022-12-25T20:31:53.365Z,7.10
2022-12-25T20:34:56.826Z,6.35
2022-12-25T20:38:00.442Z,4.25
2022-12-25T20:41:29.391Z,7.05
2022-12-25T20:44:33.040Z,9.05
2022-12-25T20:47:38.242Z,6.35
2022-12-25T20:50:41.421Z,7.57
2022-12-25T20:53:45.520Z,4.47
2022-12-25T20:56:49.149Z,4.62
2022-12-25T20:59:52.376Z,5.55
2022-12-25T21:02:56.138Z,6.45
2022-12-25T21:05:59.856Z,6.28
2022-12-25T21:09:03.273Z,7.47
2022-12-25T21:12:07.660Z,7.62
2022-12-25T21:15:15.653Z,7.85
2022-12-25T21:18:21.431Z,7.95
2022-12-25T21:24:28.731Z,9.48
2022-12-25T21:27:31.726Z,7.73
2022-12-25T21:30:37.061Z,6.37
2022-12-25T21:33:53.804Z,9.88
2022-12-25T21:36:57.123Z,11.75
2022-12-25T21:40:00.433Z,9.10
2022-12-25T21:43:03.793Z,11.85
2022-12-25T21:46:08.633Z,8.10
2022-12-25T21:52:15.384Z,6.55
2022-12-25T21:55:18.588Z,7.25
2022-12-25T21:58:22.637Z,10.98
2022-12-25T22:01:26.958Z,9.00
2022-12-25T22:04:30.243Z,9.67
2022-12-25T22:07:33.434Z,9.57
2022-12-25T22:10:37.302Z,10.20
2022-12-25T22:13:58.851Z,8.80
2022-12-25T22:17:20.966Z,12.75
2022-12-25T22:20:30.729Z,13.57
2022-12-25T22:23:34.033Z,11.35
2022-12-25T22:26:36.972Z,11.18
2022-12-25T22:29:40.770Z,10.70
2022-12-25T22:32:44.080Z,9.48
2022-12-25T22:35:47.522Z,11.02
2022-12-25T22:38:50.492Z,11.70
2022-12-25T22:41:55.912Z,6.20
2022-12-25T22:44:58.940Z,11.45
2022-12-25T22:48:02.188Z,8.20
2022-12-25T22:51:06.579Z,10.13
2022-12-25T22:54:09.859Z,9.82
2022-12-25T22:57:13.630Z,8.85
2022-12-25T23:00:17.033Z,9.00
2022-12-25T23:03:20.079Z,11.35
2022-12-25T23:06:23.469Z,10.00
2022-12-25T23:09:29.611Z,15.30
2022-12-25T23:12:51.415Z,7.93
2022-12-25T23:15:54.386Z,10.85
2022-12-25T23:19:16.489Z,10.43
2022-12-25T23:22:38.412Z,11.77
2022-12-25T23:26:00.300Z,10.85
2022-12-25T23:29:21.899Z,10.20
2022-12-25T23:32:28.035Z,9.45
2022-12-25T23:35:30.923Z,13.20
2022-12-25T23:38:34.173Z,10.27
2022-12-25T23:41:38.569Z,10.68
2022-12-25T23:44:42.082Z,9.23
2022-12-25T23:47:45.721Z,8.60
2022-12-25T23:50:48.905Z,10.43
2022-12-25T23:53:51.860Z,9.77
2022-12-25T23:56:57.384Z,9.77
